< < Back
Terminal Aerodrome Forecast


Current Version              Previous Versions:   1  2  3  4  5  6  7  8  9  

Terminal Aerodrome Forecast

282
FTUS42 KTAE 221100 AAA
TAFDHN
TAF AMD
KDHN 221121Z 2211/2312 12006KT P6SM SCT020 BKN250=

Latest METAR

636
SAUS70 KWBC 221100 RRE
MTRDHN
METAR KDHN 221053Z 12003KT 7SM BKN016 23/22 A3009 RMK AO2 SLP185
T02280217 $


USA.gov is the U.S. government's official web portal to all federal, state and local government web resources and services.